Time;durP1;ratioP1;P1;durP2;ratioP2;P2;SDS_P1;SDS_P2;PMS_P1;PMS_P2;Temp;Humidity;BMP_temperature;BMP_pressure;BME280_temperature;BME280_humidity;BME280_pressure;Samples;Min_cycle;Max_cycle;Signal;HPM_P1;HPM_P2
2021/03/30 00:01:14;;;;;;;16.30;6.15;;;9.10;99.90;;;;;;5021079;28;20287;-80
2021/03/30 00:03:42;;;;;;;12.90;6.00;;;9.10;99.90;;;;;;5037494;28;20045;-80
2021/03/30 00:06:09;;;;;;;15.27;7.20;;;9.10;99.90;;;;;;5036746;28;20527;-80
2021/03/30 00:08:36;;;;;;;15.35;6.63;;;9.10;99.90;;;;;;5018640;28;20491;-80
2021/03/30 00:11:03;;;;;;;13.07;5.97;;;9.10;99.90;;;;;;5034542;28;20056;-80
2021/03/30 00:13:30;;;;;;;13.05;6.20;;;9.10;99.90;;;;;;5023301;28;20053;-80
2021/03/30 00:15:56;;;;;;;13.38;6.68;;;9.10;99.90;;;;;;5023925;28;20049;-80
2021/03/30 00:18:23;;;;;;;12.70;6.40;;;9.00;99.90;;;;;;5039413;28;20510;-80
2021/03/30 00:20:50;;;;;;;17.60;5.93;;;9.00;99.90;;;;;;5038152;28;20108;-80
2021/03/30 00:23:17;;;;;;;11.95;6.40;;;9.00;99.90;;;;;;5037512;28;20096;-80
2021/03/30 00:25:43;;;;;;;9.30;5.88;;;9.00;99.90;;;;;;5028961;28;20049;-79
2021/03/30 00:28:09;;;;;;;13.13;6.60;;;9.00;99.90;;;;;;5023175;28;20068;-79
2021/03/30 00:30:35;;;;;;;14.65;5.35;;;9.00;99.90;;;;;;5030880;28;20109;-79
2021/03/30 00:33:03;;;;;;;13.23;5.97;;;9.00;99.90;;;;;;5042345;28;20130;-79
2021/03/30 00:35:29;;;;;;;9.38;5.63;;;9.00;99.90;;;;;;5030259;28;20129;-79
2021/03/30 00:37:55;;;;;;;11.45;6.10;;;8.90;99.90;;;;;;5024558;28;20049;-79
2021/03/30 00:40:21;;;;;;;14.02;5.78;;;8.90;99.90;;;;;;5026769;28;20048;-80
2021/03/30 00:42:48;;;;;;;9.60;5.20;;;8.80;99.90;;;;;;5048490;28;20041;-80
2021/03/30 00:45:15;;;;;;;15.52;5.90;;;8.80;99.90;;;;;;5030731;28;20056;-80
2021/03/30 00:47:44;;;;;;;12.68;6.50;;;8.70;99.90;;;;;;5031739;28;20071;-80
2021/03/30 00:50:16;;;;;;;15.90;6.25;;;8.70;99.90;;;;;;5024375;28;20064;-80
2021/03/30 00:52:43;;;;;;;19.80;6.25;;;8.70;99.90;;;;;;5041670;28;20092;-79
2021/03/30 00:55:11;;;;;;;11.40;6.13;;;8.70;99.90;;;;;;5022756;28;20056;-80
2021/03/30 00:57:38;;;;;;;10.32;6.57;;;8.60;99.90;;;;;;5024753;28;20467;-80
2021/03/30 01:00:11;;;;;;;12.93;6.03;;;8.60;99.90;;;;;;5040305;28;20156;-80
2021/03/30 01:02:38;;;;;;;15.88;6.70;;;8.60;99.90;;;;;;5023623;28;20482;-80
2021/03/30 01:05:09;;;;;;;12.40;5.70;;;8.50;99.90;;;;;;5027451;28;20497;-80
2021/03/30 01:07:36;;;;;;;10.70;6.13;;;8.50;99.90;;;;;;5019549;28;20507;-80
2021/03/30 01:10:15;;;;;;;19.75;6.72;;;8.50;99.90;;;;;;5020215;28;20047;-80
2021/03/30 01:13:19;;;;;;;17.15;7.20;;;8.40;99.90;;;;;;5020874;28;20064;-80
2021/03/30 01:15:57;;;;;;;10.63;5.93;;;8.40;99.90;;;;;;5018568;28;20045;-80
2021/03/30 01:18:47;;;;;;;16.55;6.47;;;8.30;99.90;;;;;;5036160;28;20276;-81
2021/03/30 01:21:54;;;;;;;12.52;6.60;;;8.30;99.90;;;;;;5022524;28;20053;-81
2021/03/30 01:24:42;;;;;;;15.35;6.32;;;8.30;99.90;;;;;;5035981;28;20060;-81
2021/03/30 01:27:27;;;;;;;16.27;6.57;;;8.20;99.90;;;;;;5024305;28;20044;-80
2021/03/30 01:29:54;;;;;;;15.23;6.72;;;8.20;99.90;;;;;;5036228;28;20045;-81
2021/03/30 01:32:42;;;;;;;12.82;6.03;;;8.20;99.90;;;;;;5027888;28;20469;-80
2021/03/30 01:35:13;;;;;;;10.25;6.38;;;8.10;99.90;;;;;;5017926;28;20167;-80
2021/03/30 01:37:46;;;;;;;13.68;6.10;;;8.10;99.90;;;;;;5024077;28;20049;-81
2021/03/30 01:40:15;;;;;;;16.33;6.88;;;8.10;99.90;;;;;;5034532;28;20086;-80
2021/03/30 01:42:45;;;;;;;11.25;6.38;;;8.00;99.90;;;;;;5023496;28;20044;-81
2021/03/30 01:45:18;;;;;;;14.35;6.07;;;8.00;99.90;;;;;;5017229;28;20136;-80
2021/03/30 01:47:45;;;;;;;14.40;6.25;;;7.90;99.90;;;;;;5019715;28;20395;-80
2021/03/30 01:50:12;;;;;;;13.73;6.30;;;7.90;99.90;;;;;;5015020;28;20124;-79
2021/03/30 01:52:40;;;;;;;11.23;6.55;;;7.80;99.90;;;;;;5038303;28;20053;-79
2021/03/30 01:55:13;;;;;;;13.02;6.63;;;7.80;99.90;;;;;;5035869;28;20040;-80
2021/03/30 01:57:44;;;;;;;13.43;6.40;;;7.80;99.90;;;;;;5003463;28;20128;-80
2021/03/30 02:00:11;;;;;;;16.35;7.15;;;7.70;99.90;;;;;;5012689;28;20053;-79
2021/03/30 02:02:37;;;;;;;20.00;6.65;;;7.60;99.90;;;;;;5014220;28;20050;-79
2021/03/30 02:05:05;;;;;;;12.10;6.55;;;7.60;99.90;;;;;;5016290;28;20060;-79
2021/03/30 02:07:32;;;;;;;15.40;6.43;;;7.60;99.90;;;;;;5011122;28;20484;-80
2021/03/30 02:10:03;;;;;;;17.13;6.95;;;7.50;99.90;;;;;;5015251;28;20504;-80
2021/03/30 02:12:35;;;;;;;11.98;6.55;;;7.50;99.90;;;;;;5017870;28;20484;-80
2021/03/30 02:15:03;;;;;;;11.30;6.68;;;7.50;99.90;;;;;;5017473;28;20076;-79
2021/03/30 02:18:06;;;;;;;14.75;7.10;;;7.40;99.90;;;;;;5014296;28;20389;-80
2021/03/30 02:20:45;;;;;;;17.77;6.93;;;7.40;99.90;;;;;;5009059;28;20045;-80
2021/03/30 02:23:15;;;;;;;16.38;6.40;;;7.30;99.90;;;;;;5019704;28;20133;-80
2021/03/30 02:25:45;;;;;;;12.80;6.88;;;7.40;99.90;;;;;;5013694;28;20867;-80
2021/03/30 02:28:14;;;;;;;13.02;6.95;;;7.30;99.90;;;;;;5015445;28;20120;-80
2021/03/30 02:30:42;;;;;;;17.60;6.93;;;7.30;99.90;;;;;;5024532;28;20055;-80
2021/03/30 02:33:12;;;;;;;13.55;7.22;;;7.20;99.90;;;;;;5017224;28;20050;-80
2021/03/30 02:35:39;;;;;;;16.85;6.85;;;7.20;99.90;;;;;;5028886;28;20140;-80
2021/03/30 02:38:08;;;;;;;13.65;6.63;;;7.20;99.90;;;;;;5017958;28;20149;-80
2021/03/30 02:40:35;;;;;;;13.48;8.13;;;7.10;99.90;;;;;;5013253;28;20048;-80
2021/03/30 02:43:02;;;;;;;18.33;7.85;;;7.10;99.90;;;;;;5032709;28;20053;-80
2021/03/30 02:45:31;;;;;;;16.25;7.78;;;7.00;99.90;;;;;;5017554;28;20050;-80
2021/03/30 02:48:07;;;;;;;12.80;6.68;;;7.00;99.90;;;;;;5015548;28;20846;-81
2021/03/30 02:50:35;;;;;;;15.40;6.40;;;7.00;99.90;;;;;;5017400;28;20068;-80
2021/03/30 02:53:03;;;;;;;20.70;7.95;;;6.90;99.90;;;;;;5013577;28;20077;-80
2021/03/30 02:55:35;;;;;;;15.45;6.55;;;6.90;99.90;;;;;;5030263;28;20045;-80
2021/03/30 02:58:04;;;;;;;16.38;7.18;;;6.80;99.90;;;;;;4998099;28;20072;-80
2021/03/30 03:00:31;;;;;;;17.23;6.85;;;6.70;99.90;;;;;;5021494;28;20461;-80
2021/03/30 03:03:04;;;;;;;14.52;6.70;;;6.70;99.90;;;;;;5013334;28;20068;-80
2021/03/30 03:05:30;;;;;;;13.50;6.78;;;6.60;99.90;;;;;;5019299;28;20049;-80
2021/03/30 03:07:57;;;;;;;13.23;7.50;;;6.50;99.90;;;;;;5013439;28;20045;-80
2021/03/30 03:10:23;;;;;;;15.07;7.57;;;6.50;99.90;;;;;;5016797;28;20041;-80
2021/03/30 03:12:51;;;;;;;13.40;7.05;;;6.40;99.90;;;;;;5017170;28;20062;-80
2021/03/30 03:15:19;;;;;;;17.10;7.97;;;6.40;99.90;;;;;;5013765;28;20108;-80
2021/03/30 03:17:46;;;;;;;14.55;7.75;;;6.30;99.90;;;;;;5019870;28;22084;-80
2021/03/30 03:20:13;;;;;;;11.75;6.93;;;6.20;99.90;;;;;;5020232;28;20390;-80
2021/03/30 03:22:40;;;;;;;13.05;7.00;;;6.20;99.90;;;;;;5019296;28;20049;-80
2021/03/30 03:25:09;;;;;;;15.13;7.82;;;6.10;99.90;;;;;;5019529;28;20058;-80
2021/03/30 03:27:36;;;;;;;21.30;7.30;;;6.10;99.90;;;;;;5020942;28;20073;-80
2021/03/30 03:30:06;;;;;;;15.23;7.30;;;6.00;99.90;;;;;;5019172;28;20061;-80
2021/03/30 03:32:32;;;;;;;14.35;8.35;;;6.00;99.90;;;;;;5021716;28;20033;-80
2021/03/30 03:34:59;;;;;;;16.13;7.65;;;5.90;99.90;;;;;;5025927;28;20067;-80
2021/03/30 03:37:25;;;;;;;17.85;8.35;;;5.90;99.90;;;;;;5021011;28;20128;-79
2021/03/30 03:39:52;;;;;;;15.85;8.88;;;5.80;99.90;;;;;;5017215;28;20053;-80
2021/03/30 03:42:18;;;;;;;16.95;8.35;;;5.80;99.90;;;;;;5017901;28;20054;-80
2021/03/30 03:44:45;;;;;;;15.43;7.90;;;5.70;99.90;;;;;;5022981;28;20222;-79
2021/03/30 03:47:11;;;;;;;16.45;7.13;;;5.70;99.90;;;;;;5018417;28;20125;-80
2021/03/30 03:49:37;;;;;;;10.10;6.95;;;5.60;99.90;;;;;;5017199;28;20071;-80
2021/03/30 03:52:13;;;;;;;14.95;6.90;;;5.60;99.90;;;;;;5019458;28;20065;-80
2021/03/30 03:54:43;;;;;;;13.23;7.30;;;5.50;99.90;;;;;;5021881;28;20136;-80
2021/03/30 03:57:15;;;;;;;13.85;7.80;;;5.40;99.90;;;;;;5018282;28;20049;-80
2021/03/30 03:59:44;;;;;;;11.85;7.40;;;5.40;99.90;;;;;;5015277;28;20046;-80
2021/03/30 04:02:21;;;;;;;15.52;7.30;;;5.40;99.90;;;;;;5024618;28;20137;-80
2021/03/30 04:05:06;;;;;;;16.10;7.97;;;5.40;99.90;;;;;;5025225;28;20049;-80
2021/03/30 04:07:42;;;;;;;16.55;7.85;;;5.30;99.90;;;;;;5020099;28;20058;-80
2021/03/30 04:10:10;;;;;;;17.27;8.23;;;5.30;99.90;;;;;;5017257;28;20140;-80
2021/03/30 04:12:38;;;;;;;17.25;8.32;;;5.30;99.90;;;;;;5023723;28;20132;-80
2021/03/30 04:15:06;;;;;;;18.27;8.43;;;5.30;99.90;;;;;;5032967;28;20059;-80
2021/03/30 04:17:33;;;;;;;16.20;8.57;;;5.20;99.90;;;;;;5015450;28;20045;-80
2021/03/30 04:20:12;;;;;;;15.95;8.75;;;5.20;99.90;;;;;;5018700;28;20194;-80
2021/03/30 04:22:38;;;;;;;20.25;9.70;;;5.10;99.90;;;;;;5018103;28;20045;-80
2021/03/30 04:25:06;;;;;;;14.05;7.90;;;5.10;99.90;;;;;;5008476;28;20571;-79
2021/03/30 04:27:33;;;;;;;14.50;9.18;;;5.10;99.90;;;;;;5023175;28;20708;-80
2021/03/30 04:30:00;;;;;;;15.85;8.50;;;5.00;99.90;;;;;;5015130;28;20121;-82
2021/03/30 04:32:26;;;;;;;13.90;8.63;;;5.00;99.90;;;;;;5019032;28;20076;-80
2021/03/30 04:34:54;;;;;;;19.25;8.88;;;5.00;99.90;;;;;;5020569;28;20046;-80
2021/03/30 04:37:20;;;;;;;15.05;7.90;;;5.00;99.90;;;;;;5000534;28;20045;-80
2021/03/30 04:39:46;;;;;;;18.90;9.40;;;5.00;99.90;;;;;;5016812;28;20064;-81
2021/03/30 04:42:13;;;;;;;16.27;8.48;;;4.90;99.90;;;;;;5019029;28;20057;-81
2021/03/30 04:44:39;;;;;;;17.80;8.75;;;5.00;99.90;;;;;;5018312;28;20053;-80
2021/03/30 04:47:05;;;;;;;21.75;8.95;;;5.00;99.90;;;;;;5017832;28;20069;-80
2021/03/30 04:49:33;;;;;;;18.70;8.35;;;5.00;99.90;;;;;;5016963;28;20489;-80
2021/03/30 04:51:59;;;;;;;16.50;8.23;;;4.90;99.90;;;;;;5025995;28;20124;-80
2021/03/30 04:54:25;;;;;;;16.30;8.88;;;4.90;99.90;;;;;;5016903;28;20053;-80
2021/03/30 04:56:51;;;;;;;21.40;8.75;;;4.90;99.90;;;;;;5015860;28;20103;-80
2021/03/30 04:59:18;;;;;;;20.00;9.93;;;4.90;99.90;;;;;;5019579;28;20064;-80
2021/03/30 05:01:44;;;;;;;21.58;8.85;;;4.90;99.90;;;;;;5014718;28;20049;-80
2021/03/30 05:04:10;;;;;;;26.70;13.30;;;4.90;99.90;;;;;;5012954;28;20517;-80
2021/03/30 05:06:36;;;;;;;22.08;11.30;;;4.80;99.90;;;;;;4998496;28;20113;-80
2021/03/30 05:09:03;;;;;;;19.75;10.23;;;4.80;99.90;;;;;;5023323;28;20049;-80
2021/03/30 05:11:29;;;;;;;20.05;9.52;;;4.80;99.90;;;;;;5014726;28;20057;-80
2021/03/30 05:13:56;;;;;;;20.17;10.73;;;4.80;99.90;;;;;;5017363;28;20584;-80
2021/03/30 05:16:22;;;;;;;17.98;11.00;;;4.70;99.90;;;;;;5014905;28;20109;-80
2021/03/30 05:18:48;;;;;;;20.98;10.77;;;4.70;99.90;;;;;;5014528;28;20117;-80
2021/03/30 05:21:18;;;;;;;20.05;10.52;;;4.70;99.90;;;;;;5016957;28;20056;-80
2021/03/30 05:23:44;;;;;;;23.67;11.20;;;4.70;99.90;;;;;;5011516;28;20073;-79
2021/03/30 05:26:11;;;;;;;21.45;12.25;;;4.70;99.90;;;;;;5022536;28;20503;-80
2021/03/30 05:28:37;;;;;;;38.70;11.55;;;4.70;99.90;;;;;;5016555;28;20148;-79
2021/03/30 05:31:03;;;;;;;23.73;11.65;;;4.60;99.90;;;;;;5018875;28;20046;-79
2021/03/30 05:33:29;;;;;;;25.00;12.05;;;4.60;99.90;;;;;;5017159;28;20100;-81
2021/03/30 05:35:56;;;;;;;25.00;12.43;;;4.60;99.90;;;;;;5018085;28;20085;-80
2021/03/30 05:38:22;;;;;;;20.02;10.73;;;4.70;99.90;;;;;;5014218;28;20054;-80
2021/03/30 05:40:49;;;;;;;23.52;11.70;;;4.70;99.90;;;;;;5019281;28;20049;-80
2021/03/30 05:43:17;;;;;;;23.75;12.18;;;4.80;99.90;;;;;;5019054;28;20073;-81
2021/03/30 05:45:43;;;;;;;29.75;13.13;;;4.80;99.90;;;;;;5013781;28;20057;-80
2021/03/30 05:48:13;;;;;;;26.05;12.30;;;4.80;99.90;;;;;;5020811;28;20060;-81
2021/03/30 05:50:40;;;;;;;26.02;11.18;;;4.80;99.90;;;;;;5023046;28;20481;-82
2021/03/30 05:53:11;;;;;;;25.50;12.63;;;4.80;99.90;;;;;;5007226;28;20100;-81
2021/03/30 05:55:40;;;;;;;22.00;12.73;;;4.80;99.90;;;;;;5025401;28;20069;-81
2021/03/30 05:58:08;;;;;;;23.63;11.73;;;4.80;99.90;;;;;;5018961;28;20057;-80
2021/03/30 06:00:37;;;;;;;24.45;12.43;;;4.80;99.90;;;;;;5008575;28;20476;-80
2021/03/30 06:03:12;;;;;;;26.90;11.85;;;4.80;99.90;;;;;;5034018;28;20393;-80
2021/03/30 06:05:39;;;;;;;24.10;11.23;;;4.80;99.90;;;;;;5023854;28;20113;-80
2021/03/30 06:08:06;;;;;;;24.75;11.60;;;4.90;99.90;;;;;;5033586;28;20064;-80
2021/03/30 06:10:34;;;;;;;22.67;11.10;;;4.90;99.90;;;;;;5033323;28;20051;-81
2021/03/30 06:13:02;;;;;;;24.10;12.60;;;5.00;99.90;;;;;;5003596;28;20052;-80
2021/03/30 06:15:31;;;;;;;21.40;11.85;;;5.10;99.90;;;;;;5028941;28;21085;-80
2021/03/30 06:17:59;;;;;;;19.42;11.32;;;5.10;99.90;;;;;;5014489;28;20132;-80
2021/03/30 06:20:36;;;;;;;26.45;12.23;;;5.20;99.90;;;;;;5014599;28;20048;-81
2021/03/30 06:23:07;;;;;;;21.48;10.65;;;5.30;99.90;;;;;;5040291;28;20040;-82
2021/03/30 06:25:45;;;;;;;19.65;11.65;;;5.40;99.90;;;;;;5026235;28;20080;-82
2021/03/30 06:28:20;;;;;;;32.55;12.13;;;5.60;99.90;;;;;;5021363;28;20087;-80
2021/03/30 06:30:53;;;;;;;23.08;11.52;;;5.80;99.90;;;;;;5018422;28;20100;-80
2021/03/30 06:33:20;;;;;;;21.75;11.30;;;6.00;99.90;;;;;;5023443;28;20061;-81
2021/03/30 06:35:47;;;;;;;20.02;11.88;;;6.30;99.90;;;;;;5037307;28;22599;-81
2021/03/30 06:38:13;;;;;;;21.27;11.13;;;6.70;99.90;;;;;;5018288;28;20045;-81
2021/03/30 06:40:41;;;;;;;20.50;9.98;;;7.20;99.90;;;;;;5018484;28;20064;-79
2021/03/30 06:46:10;;;;;;;19.88;10.73;;;8.40;99.90;;;;;;5037277;28;20055;-81
2021/03/30 06:48:39;;;;;;;21.27;10.88;;;8.80;99.90;;;;;;5020694;28;20469;-81
2021/03/30 06:51:22;;;;;;;22.35;11.25;;;9.20;99.90;;;;;;5042618;28;20124;-82
2021/03/30 06:53:48;;;;;;;24.83;11.85;;;9.80;99.90;;;;;;5043433;28;20053;-81
2021/03/30 06:56:14;;;;;;;22.25;12.73;;;10.30;99.90;;;;;;5024663;28;20518;-81
2021/03/30 06:58:58;;;;;;;21.55;11.27;;;10.80;99.90;;;;;;5045338;28;20128;-81
2021/03/30 07:01:25;;;;;;;20.60;11.60;;;11.40;99.90;;;;;;5042087;28;20443;-81
2021/03/30 07:03:54;;;;;;;22.15;11.88;;;11.80;99.90;;;;;;5028962;28;20084;-81
2021/03/30 07:06:22;;;;;;;21.83;11.23;;;12.00;99.90;;;;;;5023382;28;20041;-81
2021/03/30 07:08:49;;;;;;;19.25;10.98;;;12.10;99.90;;;;;;5024541;28;20059;-80
2021/03/30 07:11:17;;;;;;;28.95;12.95;;;12.00;99.90;;;;;;5025294;28;20144;-84
2021/03/30 07:13:44;;;;;;;21.55;11.80;;;12.00;99.90;;;;;;5032295;28;21183;-79
2021/03/30 07:16:21;;;;;;;23.42;12.38;;;11.80;99.90;;;;;;5037759;28;20103;-80
2021/03/30 07:18:50;;;;;;;25.15;12.27;;;11.70;99.90;;;;;;5033485;28;20053;-80
2021/03/30 07:21:25;;;;;;;23.33;11.88;;;11.70;99.90;;;;;;5038043;28;20052;-79
2021/03/30 07:23:54;;;;;;;21.75;12.27;;;11.80;99.90;;;;;;5038292;28;20139;-79
2021/03/30 07:26:35;;;;;;;25.85;13.05;;;11.80;99.90;;;;;;5017814;28;20107;-79
2021/03/30 07:29:09;;;;;;;26.17;12.65;;;11.90;99.90;;;;;;5017055;28;20055;-79
2021/03/30 07:31:55;;;;;;;22.52;13.27;;;12.00;99.90;;;;;;5019163;28;20057;-79
2021/03/30 07:34:43;;;;;;;26.77;12.93;;;12.00;99.90;;;;;;5026999;28;20049;-78
2021/03/30 07:37:16;;;;;;;19.45;12.40;;;12.20;99.90;;;;;;5032185;28;20055;-80
2021/03/30 07:39:53;;;;;;;23.75;12.32;;;12.40;99.90;;;;;;5020078;28;20113;-80
2021/03/30 07:42:19;;;;;;;22.52;12.43;;;12.60;99.90;;;;;;5035376;28;20069;-81
2021/03/30 07:44:49;;;;;;;27.30;11.90;;;12.70;99.90;;;;;;5029150;28;20193;-81
2021/03/30 07:47:17;;;;;;;22.13;12.23;;;12.90;99.90;;;;;;5022170;28;20053;-81
2021/03/30 07:49:47;;;;;;;22.17;11.65;;;13.20;99.90;;;;;;5029018;28;20522;-81
2021/03/30 07:52:28;;;;;;;27.95;12.55;;;13.40;99.80;;;;;;5038011;28;20104;-81
2021/03/30 07:55:14;;;;;;;19.67;11.85;;;13.60;99.90;;;;;;5022767;28;20049;-81
2021/03/30 07:58:01;;;;;;;21.10;10.63;;;13.70;98.40;;;;;;5024890;28;20171;-81
2021/03/30 08:00:49;;;;;;;19.70;10.27;;;13.90;96.90;;;;;;5023182;28;20511;-81
2021/03/30 08:03:26;;;;;;;21.08;10.45;;;14.10;94.90;;;;;;5021679;28;20049;-81
2021/03/30 08:06:19;;;;;;;32.58;10.05;;;14.20;93.80;;;;;;5028427;28;20068;-81
2021/03/30 08:09:07;;;;;;;20.77;9.43;;;14.30;91.70;;;;;;5023602;28;20554;-78
2021/03/30 08:11:40;;;;;;;22.10;10.88;;;14.40;90.40;;;;;;5015406;28;20049;-79
2021/03/30 08:14:08;;;;;;;22.23;10.55;;;14.50;89.90;;;;;;5027622;28;20098;-79
2021/03/30 08:16:39;;;;;;;21.58;9.88;;;14.50;88.90;;;;;;5012237;28;20067;-80
2021/03/30 08:19:07;;;;;;;19.50;10.25;;;14.50;89.20;;;;;;5020041;28;20088;-80
2021/03/30 08:22:18;;;;;;;17.13;9.30;;;14.60;86.10;;;;;;5017081;28;20050;-80
2021/03/30 08:24:44;;;;;;;16.77;9.60;;;14.60;83.30;;;;;;5019401;28;20080;-81
2021/03/30 08:27:30;;;;;;;21.10;10.27;;;14.60;83.30;;;;;;5038031;28;20555;-81
2021/03/30 08:30:00;;;;;;;20.83;10.43;;;14.70;84.10;;;;;;5012872;28;20468;-81
2021/03/30 08:32:28;;;;;;;19.77;10.75;;;14.80;84.80;;;;;;5037064;28;20059;-80
2021/03/30 08:34:55;;;;;;;22.50;10.98;;;14.80;84.30;;;;;;5020103;28;20053;-79
2021/03/30 08:37:22;;;;;;;23.48;11.13;;;14.90;83.80;;;;;;5036287;28;20131;-80
2021/03/30 08:39:49;;;;;;;18.80;11.48;;;15.10;82.30;;;;;;5023754;28;20104;-80
2021/03/30 08:42:20;;;;;;;25.50;11.52;;;15.20;82.80;;;;;;5033937;28;20064;-80
2021/03/30 08:44:59;;;;;;;22.10;12.32;;;15.30;81.70;;;;;;5015653;28;20061;-80
2021/03/30 08:47:39;;;;;;;27.58;11.55;;;15.30;83.10;;;;;;5038128;28;20441;-80
2021/03/30 08:50:23;;;;;;;21.00;11.38;;;15.40;83.90;;;;;;5018216;28;20385;-80
2021/03/30 08:53:00;;;;;;;22.77;11.57;;;15.60;81.50;;;;;;5020177;28;20071;-80
2021/03/30 08:55:28;;;;;;;20.35;11.82;;;15.70;80.80;;;;;;5022667;28;20308;-79
2021/03/30 08:57:57;;;;;;;28.20;12.90;;;15.90;79.70;;;;;;5019210;28;20049;-79
2021/03/30 09:00:24;;;;;;;21.77;12.38;;;16.00;79.60;;;;;;5015732;28;20084;-79
2021/03/30 09:03:08;;;;;;;29.38;12.63;;;16.10;80.10;;;;;;5006078;28;20053;-79
2021/03/30 09:05:37;;;;;;;26.77;12.35;;;16.10;78.40;;;;;;5016493;28;20049;-79
2021/03/30 09:08:05;;;;;;;23.10;12.18;;;16.10;76.80;;;;;;5027572;28;20124;-79
2021/03/30 09:10:32;;;;;;;35.08;14.20;;;16.20;75.20;;;;;;5037565;28;20069;-79
2021/03/30 09:13:13;;;;;;;22.95;11.95;;;16.30;75.90;;;;;;5037439;28;20045;-79
2021/03/30 09:15:39;;;;;;;24.20;10.07;;;16.40;71.20;;;;;;5026548;28;20102;-80
2021/03/30 09:18:06;;;;;;;14.07;8.45;;;16.50;67.40;;;;;;5006081;28;20068;-79
2021/03/30 09:20:33;;;;;;;13.95;7.63;;;16.60;61.80;;;;;;5018742;28;20135;-79
2021/03/30 09:23:13;;;;;;;16.38;7.80;;;16.70;64.10;;;;;;5025017;28;20060;-80
2021/03/30 09:25:44;;;;;;;18.50;7.70;;;16.90;60.20;;;;;;5038763;28;20044;-79
2021/03/30 09:28:17;;;;;;;17.58;8.45;;;17.00;58.50;;;;;;5023604;28;20080;-79
2021/03/30 09:30:44;;;;;;;14.15;8.20;;;17.20;59.00;;;;;;5021731;28;20044;-79
2021/03/30 09:33:11;;;;;;;16.65;8.27;;;17.30;57.20;;;;;;5019924;28;20053;-79
2021/03/30 09:35:38;;;;;;;16.98;8.35;;;17.40;59.00;;;;;;5020878;28;20057;-79
2021/03/30 09:38:05;;;;;;;15.90;8.73;;;17.60;55.40;;;;;;5021063;28;20048;-78
2021/03/30 09:40:39;;;;;;;20.05;8.05;;;17.70;57.00;;;;;;5036393;28;20454;-79
2021/03/30 09:43:07;;;;;;;17.90;9.38;;;17.80;55.30;;;;;;5039058;28;20048;-78
2021/03/30 09:45:35;;;;;;;14.52;8.93;;;17.90;54.50;;;;;;5036640;28;20076;-79
2021/03/30 09:48:05;;;;;;;15.25;8.55;;;17.90;57.00;;;;;;5036139;28;20719;-79
2021/03/30 09:50:32;;;;;;;17.92;9.00;;;18.00;55.90;;;;;;5022679;28;20041;-79
2021/03/30 09:53:07;;;;;;;11.05;6.28;;;18.10;55.00;;;;;;5019778;28;20132;-77
2021/03/30 09:55:36;;;;;;;13.80;7.72;;;18.30;52.10;;;;;;5015798;28;20060;-78
2021/03/30 09:58:05;;;;;;;13.60;7.00;;;18.40;51.20;;;;;;5016017;28;20523;-79
2021/03/30 10:00:33;;;;;;;17.67;8.05;;;18.50;50.70;;;;;;5015468;28;20190;-79
2021/03/30 10:03:00;;;;;;;10.00;6.47;;;18.70;52.70;;;;;;5013984;28;20106;-80
2021/03/30 10:05:38;;;;;;;13.05;6.53;;;18.80;51.30;;;;;;5019887;28;20124;-79
2021/03/30 10:08:16;;;;;;;12.93;7.80;;;19.00;50.20;;;;;;5034348;28;20045;-79
2021/03/30 10:10:54;;;;;;;12.85;7.15;;;19.10;50.00;;;;;;5035649;28;20099;-79
2021/03/30 10:13:29;;;;;;;14.10;6.20;;;19.10;47.70;;;;;;5017792;28;20045;-79
2021/03/30 10:15:57;;;;;;;11.95;6.00;;;19.10;46.60;;;;;;5014825;28;20109;-78
2021/03/30 10:18:26;;;;;;;10.63;6.55;;;19.30;48.90;;;;;;5034899;28;20798;-78
2021/03/30 10:20:55;;;;;;;11.60;7.25;;;19.40;46.30;;;;;;5019948;28;20044;-78
2021/03/30 10:23:25;;;;;;;9.38;4.82;;;19.60;46.30;;;;;;5020111;28;20492;-78
2021/03/30 10:25:53;;;;;;;10.45;5.25;;;19.70;43.80;;;;;;5017881;28;20122;-78
2021/03/30 10:28:32;;;;;;;13.90;7.32;;;19.80;43.80;;;;;;5017984;28;20068;-78
2021/03/30 10:31:04;;;;;;;8.60;5.65;;;20.00;44.70;;;;;;5035275;28;20041;-78
2021/03/30 10:33:34;;;;;;;10.93;6.82;;;20.00;43.30;;;;;;5031995;28;20052;-77
2021/03/30 10:36:00;;;;;;;15.95;7.00;;;20.00;44.00;;;;;;5014958;28;20920;-77
2021/03/30 10:38:27;;;;;;;9.95;6.53;;;20.00;44.30;;;;;;5019420;28;20052;-79
2021/03/30 10:41:03;;;;;;;14.52;6.72;;;20.00;42.90;;;;;;5020392;28;20045;-79
2021/03/30 10:43:29;;;;;;;12.40;6.95;;;20.20;44.20;;;;;;5017451;28;20052;-77
2021/03/30 10:45:56;;;;;;;9.93;6.80;;;20.30;43.40;;;;;;5013319;28;20089;-77
2021/03/30 10:48:22;;;;;;;13.40;6.55;;;20.40;42.80;;;;;;5031573;28;20060;-78
2021/03/30 10:50:52;;;;;;;9.25;5.28;;;20.40;41.10;;;;;;5037127;28;20149;-79
2021/03/30 10:53:19;;;;;;;8.88;5.32;;;20.60;40.20;;;;;;5021368;28;20133;-78
2021/03/30 10:55:47;;;;;;;10.13;6.18;;;20.70;38.90;;;;;;5019468;28;20063;-78
2021/03/30 10:58:15;;;;;;;7.82;5.75;;;20.70;40.90;;;;;;5011647;28;20156;-77
2021/03/30 11:00:42;;;;;;;8.55;5.68;;;21.00;41.10;;;;;;5012175;28;20056;-76
2021/03/30 11:03:25;;;;;;;;;;;21.10;42.50;;;;;;5015933;28;20041;-77
2021/03/30 11:05:52;;;;;;;11.07;5.45;;;21.40;39.40;;;;;;5031184;28;19952;-78
2021/03/30 11:08:18;;;;;;;8.48;4.78;;;21.50;39.60;;;;;;5018484;28;20065;-79
2021/03/30 11:10:44;;;;;;;10.50;5.47;;;21.60;37.20;;;;;;5016160;28;20065;-79
2021/03/30 11:13:10;;;;;;;7.78;5.82;;;21.80;38.40;;;;;;5031114;28;20049;-78
2021/03/30 11:15:37;;;;;;;11.07;5.70;;;21.70;37.70;;;;;;5035575;28;20068;-79
2021/03/30 11:18:03;;;;;;;7.03;5.80;;;21.80;38.70;;;;;;5018636;28;20049;-80
2021/03/30 11:20:30;;;;;;;8.43;5.32;;;21.80;37.50;;;;;;5020871;28;20065;-80
2021/03/30 11:22:56;;;;;;;9.30;5.90;;;21.90;37.40;;;;;;5017507;28;20056;-78
2021/03/30 11:25:23;;;;;;;7.53;5.32;;;22.00;38.10;;;;;;5032184;28;20048;-79
2021/03/30 11:27:53;;;;;;;10.30;5.57;;;22.20;39.20;;;;;;5021955;28;20068;-80
2021/03/30 11:30:28;;;;;;;6.65;4.43;;;22.40;39.10;;;;;;5016206;28;20053;-78
2021/03/30 11:33:20;;;;;;;8.10;4.65;;;22.50;36.70;;;;;;5015890;28;20063;-79
2021/03/30 11:36:06;;;;;;;7.82;4.68;;;22.60;36.70;;;;;;5035096;28;20060;-81
2021/03/30 11:38:30;;;;;;;7.30;4.30;;;22.70;35.50;;;;;;5041007;28;20133;-81
2021/03/30 11:40:56;;;;;;;6.97;3.83;;;22.70;33.60;;;;;;5025489;28;20122;-81
2021/03/30 11:43:23;;;;;;;5.97;4.65;;;22.70;33.20;;;;;;5023757;28;20446;-81
2021/03/30 11:45:49;;;;;;;7.68;4.55;;;22.80;33.60;;;;;;5014379;28;20551;-80
2021/03/30 11:48:16;;;;;;;9.05;4.50;;;22.80;35.50;;;;;;5030565;28;20443;-82
2021/03/30 11:50:42;;;;;;;6.32;4.40;;;23.00;35.50;;;;;;5043964;28;20455;-81
2021/03/30 11:53:08;;;;;;;9.07;4.88;;;23.10;32.80;;;;;;5024128;28;20116;-80
2021/03/30 11:55:36;;;;;;;10.10;4.93;;;23.20;33.00;;;;;;5040933;28;20053;-81
2021/03/30 11:58:02;;;;;;;5.90;4.15;;;23.30;33.10;;;;;;5025958;28;20076;-81
2021/03/30 12:00:29;;;;;;;14.65;4.55;;;23.30;33.00;;;;;;5025724;28;20058;-81
2021/03/30 12:03:06;;;;;;;5.43;3.83;;;23.20;33.50;;;;;;5009278;28;20059;-82
2021/03/30 12:05:34;;;;;;;7.32;3.65;;;23.30;34.90;;;;;;5041404;28;20103;-81
2021/03/30 12:08:00;;;;;;;11.20;5.05;;;23.40;32.80;;;;;;5023367;28;20492;-81
2021/03/30 12:10:27;;;;;;;6.63;3.78;;;23.50;34.40;;;;;;5026035;28;20053;-82
2021/03/30 12:12:54;;;;;;;7.93;5.03;;;23.60;33.20;;;;;;5027252;28;20075;-82
2021/03/30 12:15:21;;;;;;;5.43;3.63;;;23.60;32.60;;;;;;5026174;28;20060;-82
2021/03/30 12:17:49;;;;;;;6.50;4.20;;;23.70;33.10;;;;;;5003915;28;20053;-82
2021/03/30 12:20:16;;;;;;;5.65;3.83;;;24.00;32.00;;;;;;5020720;28;20144;-81
2021/03/30 12:22:43;;;;;;;5.45;3.97;;;24.20;32.90;;;;;;5027879;28;20444;-82
2021/03/30 12:25:10;;;;;;;4.75;3.95;;;24.40;31.60;;;;;;5021976;28;20053;-82
2021/03/30 12:27:36;;;;;;;10.02;4.90;;;24.70;30.30;;;;;;5040160;28;20079;-83
2021/03/30 12:30:04;;;;;;;7.75;4.95;;;25.10;31.80;;;;;;5022472;28;20045;-83
2021/03/30 12:32:31;;;;;;;6.95;4.68;;;25.50;31.10;;;;;;5021520;28;20052;-82
2021/03/30 12:34:57;;;;;;;7.47;5.55;;;25.80;31.90;;;;;;5022956;28;20053;-82
2021/03/30 12:37:23;;;;;;;8.57;5.15;;;26.30;32.40;;;;;;5021601;28;20050;-79
2021/03/30 12:39:50;;;;;;;7.75;4.70;;;27.00;31.50;;;;;;5025374;28;20568;-82
2021/03/30 12:42:16;;;;;;;7.97;4.80;;;27.90;31.40;;;;;;5022577;28;20080;-82
2021/03/30 12:44:43;;;;;;;8.38;5.20;;;28.80;29.20;;;;;;5025785;28;20116;-81
2021/03/30 12:47:09;;;;;;;8.75;5.50;;;29.30;28.60;;;;;;5019835;28;20113;-80
2021/03/30 12:49:35;;;;;;;8.68;5.07;;;29.90;29.50;;;;;;5019715;28;20084;-79
2021/03/30 12:52:02;;;;;;;8.57;4.90;;;30.70;28.10;;;;;;5038138;28;20045;-81
2021/03/30 12:54:29;;;;;;;7.38;4.85;;;31.20;27.10;;;;;;5027454;28;20152;-80
2021/03/30 12:56:55;;;;;;;9.13;5.75;;;31.50;27.60;;;;;;5028302;28;20044;-80
2021/03/30 12:59:21;;;;;;;7.97;5.80;;;31.80;28.60;;;;;;5021330;28;20130;-81